sensor_id;sensor_type;location;lat;lon;timestamp;temperature;humidity
2062;DHT22;11070;51.336;12.340;2023-04-03T00:00:53;2.60;99.90
2062;DHT22;11070;51.336;12.340;2023-04-03T00:03:19;2.60;99.90
2062;DHT22;11070;51.336;12.340;2023-04-03T00:05:46;2.60;99.90
2062;DHT22;11070;51.336;12.340;2023-04-03T00:08:11;2.60;99.90
2062;DHT22;11070;51.336;12.340;2023-04-03T00:10:37;2.50;99.90
2062;DHT22;11070;51.336;12.340;2023-04-03T00:13:04;2.50;99.90
2062;DHT22;11070;51.336;12.340;2023-04-03T00:15:30;2.50;99.90
2062;DHT22;11070;51.336;12.340;2023-04-03T00:17:56;2.50;99.90
2062;DHT22;11070;51.336;12.340;2023-04-03T00:20:22;2.40;99.90
2062;DHT22;11070;51.336;12.340;2023-04-03T00:22:48;2.40;99.90
2062;DHT22;11070;51.336;12.340;2023-04-03T00:25:14;2.40;99.90
2062;DHT22;11070;51.336;12.340;2023-04-03T00:27:40;2.40;99.90
2062;DHT22;11070;51.336;12.340;2023-04-03T00:30:08;2.30;99.90
2062;DHT22;11070;51.336;12.340;2023-04-03T00:32:34;2.40;99.90
2062;DHT22;11070;51.336;12.340;2023-04-03T00:35:00;2.30;99.90
2062;DHT22;11070;51.336;12.340;2023-04-03T00:37:25;2.30;99.90
2062;DHT22;11070;51.336;12.340;2023-04-03T00:39:51;2.30;99.90
2062;DHT22;11070;51.336;12.340;2023-04-03T00:42:17;2.30;99.90
2062;DHT22;11070;51.336;12.340;2023-04-03T00:47:11;2.20;99.90
2062;DHT22;11070;51.336;12.340;2023-04-03T00:49:39;2.20;99.90
2062;DHT22;11070;51.336;12.340;2023-04-03T00:52:11;2.10;99.90
2062;DHT22;11070;51.336;12.340;2023-04-03T00:54:39;2.10;99.90
2062;DHT22;11070;51.336;12.340;2023-04-03T00:57:07;2.00;99.90
2062;DHT22;11070;51.336;12.340;2023-04-03T00:59:35;2.00;99.90
2062;DHT22;11070;51.336;12.340;2023-04-03T01:02:03;1.90;99.90
2062;DHT22;11070;51.336;12.340;2023-04-03T01:07:02;1.80;99.90
2062;DHT22;11070;51.336;12.340;2023-04-03T01:09:29;1.80;99.90
2062;DHT22;11070;51.336;12.340;2023-04-03T01:12:22;1.70;99.90
2062;DHT22;11070;51.336;12.340;2023-04-03T01:14:51;1.70;99.90
2062;DHT22;11070;51.336;12.340;2023-04-03T01:20:02;1.60;99.90
2062;DHT22;11070;51.336;12.340;2023-04-03T01:25:26;1.50;99.90
2062;DHT22;11070;51.336;12.340;2023-04-03T01:27:52;1.40;99.90
2062;DHT22;11070;51.336;12.340;2023-04-03T01:30:20;1.40;99.90
2062;DHT22;11070;51.336;12.340;2023-04-03T01:32:46;1.30;99.90
2062;DHT22;11070;51.336;12.340;2023-04-03T01:35:12;1.30;99.90
2062;DHT22;11070;51.336;12.340;2023-04-03T01:37:38;1.30;99.90
2062;DHT22;11070;51.336;12.340;2023-04-03T01:40:04;1.20;99.90
2062;DHT22;11070;51.336;12.340;2023-04-03T01:42:31;1.20;99.90
2062;DHT22;11070;51.336;12.340;2023-04-03T01:44:56;1.10;99.90
2062;DHT22;11070;51.336;12.340;2023-04-03T01:47:22;1.10;99.90
2062;DHT22;11070;51.336;12.340;2023-04-03T01:49:48;1.10;99.90
2062;DHT22;11070;51.336;12.340;2023-04-03T01:52:14;1.00;99.90
2062;DHT22;11070;51.336;12.340;2023-04-03T01:54:39;1.00;99.90
2062;DHT22;11070;51.336;12.340;2023-04-03T01:57:05;1.00;99.90
2062;DHT22;11070;51.336;12.340;2023-04-03T01:59:31;0.90;99.90
2062;DHT22;11070;51.336;12.340;2023-04-03T02:01:56;0.90;99.90
2062;DHT22;11070;51.336;12.340;2023-04-03T02:04:22;0.90;99.90
2062;DHT22;11070;51.336;12.340;2023-04-03T02:06:48;0.90;99.90
2062;DHT22;11070;51.336;12.340;2023-04-03T02:09:14;0.90;99.90
2062;DHT22;11070;51.336;12.340;2023-04-03T02:11:40;0.90;99.90
2062;DHT22;11070;51.336;12.340;2023-04-03T02:14:06;0.90;99.90
2062;DHT22;11070;51.336;12.340;2023-04-03T02:16:32;0.90;99.90
2062;DHT22;11070;51.336;12.340;2023-04-03T02:18:57;0.90;99.90
2062;DHT22;11070;51.336;12.340;2023-04-03T02:21:23;0.90;99.90
2062;DHT22;11070;51.336;12.340;2023-04-03T02:23:49;0.90;99.90
2062;DHT22;11070;51.336;12.340;2023-04-03T02:26:16;0.90;99.90
2062;DHT22;11070;51.336;12.340;2023-04-03T02:28:42;0.90;99.90
2062;DHT22;11070;51.336;12.340;2023-04-03T02:31:08;0.90;99.90
2062;DHT22;11070;51.336;12.340;2023-04-03T02:33:35;0.80;99.90
2062;DHT22;11070;51.336;12.340;2023-04-03T02:36:03;0.80;99.90
2062;DHT22;11070;51.336;12.340;2023-04-03T02:38:29;0.80;99.90
2062;DHT22;11070;51.336;12.340;2023-04-03T02:41:03;0.80;99.90
2062;DHT22;11070;51.336;12.340;2023-04-03T02:43:30;0.80;99.90
2062;DHT22;11070;51.336;12.340;2023-04-03T02:45:55;0.70;99.90
2062;DHT22;11070;51.336;12.340;2023-04-03T02:48:22;0.70;99.90
2062;DHT22;11070;51.336;12.340;2023-04-03T02:50:48;0.60;99.90
2062;DHT22;11070;51.336;12.340;2023-04-03T02:53:13;0.70;99.90
2062;DHT22;11070;51.336;12.340;2023-04-03T02:55:39;0.60;99.90
2062;DHT22;11070;51.336;12.340;2023-04-03T02:58:05;0.60;99.90
2062;DHT22;11070;51.336;12.340;2023-04-03T03:00:31;0.60;99.90
2062;DHT22;11070;51.336;12.340;2023-04-03T03:02:56;0.50;99.90
2062;DHT22;11070;51.336;12.340;2023-04-03T03:05:22;0.50;99.90
2062;DHT22;11070;51.336;12.340;2023-04-03T03:07:48;0.40;99.90
2062;DHT22;11070;51.336;12.340;2023-04-03T03:10:13;0.30;99.90
2062;DHT22;11070;51.336;12.340;2023-04-03T03:12:40;0.30;99.90
2062;DHT22;11070;51.336;12.340;2023-04-03T03:15:06;0.30;99.90
2062;DHT22;11070;51.336;12.340;2023-04-03T03:17:32;0.20;99.90
2062;DHT22;11070;51.336;12.340;2023-04-03T03:19:58;0.20;99.90
2062;DHT22;11070;51.336;12.340;2023-04-03T03:22:24;0.20;99.90
2062;DHT22;11070;51.336;12.340;2023-04-03T03:24:50;0.10;99.90
2062;DHT22;11070;51.336;12.340;2023-04-03T03:27:15;0.10;99.90
2062;DHT22;11070;51.336;12.340;2023-04-03T03:29:42;0.10;99.90
2062;DHT22;11070;51.336;12.340;2023-04-03T03:32:07;0.00;99.90
2062;DHT22;11070;51.336;12.340;2023-04-03T03:34:33;0.00;99.90
2062;DHT22;11070;51.336;12.340;2023-04-03T03:36:59;0.00;99.90
2062;DHT22;11070;51.336;12.340;2023-04-03T03:39:25;-0.10;99.90
2062;DHT22;11070;51.336;12.340;2023-04-03T03:41:50;-0.10;99.90
2062;DHT22;11070;51.336;12.340;2023-04-03T03:44:19;-0.10;99.90
2062;DHT22;11070;51.336;12.340;2023-04-03T03:46:45;-0.10;99.90
2062;DHT22;11070;51.336;12.340;2023-04-03T03:49:11;-0.10;99.90
2062;DHT22;11070;51.336;12.340;2023-04-03T03:51:37;-0.20;99.90
2062;DHT22;11070;51.336;12.340;2023-04-03T03:54:03;-0.10;99.90
2062;DHT22;11070;51.336;12.340;2023-04-03T03:56:29;-0.20;99.90
2062;DHT22;11070;51.336;12.340;2023-04-03T03:58:55;-0.20;99.90
2062;DHT22;11070;51.336;12.340;2023-04-03T04:01:22;-0.20;99.90
2062;DHT22;11070;51.336;12.340;2023-04-03T04:06:15;-0.20;99.90
2062;DHT22;11070;51.336;12.340;2023-04-03T04:08:40;-0.30;99.90
2062;DHT22;11070;51.336;12.340;2023-04-03T04:11:06;-0.30;99.90
2062;DHT22;11070;51.336;12.340;2023-04-03T04:13:32;-0.30;99.90
2062;DHT22;11070;51.336;12.340;2023-04-03T04:15:58;-0.30;99.90
2062;DHT22;11070;51.336;12.340;2023-04-03T04:18:24;-0.30;99.90
2062;DHT22;11070;51.336;12.340;2023-04-03T04:20:49;-0.40;99.90
2062;DHT22;11070;51.336;12.340;2023-04-03T04:23:17;-0.40;99.90
2062;DHT22;11070;51.336;12.340;2023-04-03T04:25:46;-0.40;99.90
2062;DHT22;11070;51.336;12.340;2023-04-03T04:28:12;-0.40;99.90
2062;DHT22;11070;51.336;12.340;2023-04-03T04:30:38;-0.40;99.90
2062;DHT22;11070;51.336;12.340;2023-04-03T04:33:04;-0.50;99.90
2062;DHT22;11070;51.336;12.340;2023-04-03T04:35:30;-0.50;99.90
2062;DHT22;11070;51.336;12.340;2023-04-03T04:37:55;-0.50;99.90
2062;DHT22;11070;51.336;12.340;2023-04-03T04:40:21;-0.50;99.90
2062;DHT22;11070;51.336;12.340;2023-04-03T04:42:47;-0.50;99.90
2062;DHT22;11070;51.336;12.340;2023-04-03T04:45:13;-0.50;99.90
2062;DHT22;11070;51.336;12.340;2023-04-03T04:47:40;-0.50;99.90
2062;DHT22;11070;51.336;12.340;2023-04-03T04:50:06;-0.50;99.90
2062;DHT22;11070;51.336;12.340;2023-04-03T04:52:32;-0.50;99.90
2062;DHT22;11070;51.336;12.340;2023-04-03T04:54:58;-0.50;99.90
2062;DHT22;11070;51.336;12.340;2023-04-03T04:57:23;-0.50;99.90
2062;DHT22;11070;51.336;12.340;2023-04-03T04:59:49;-0.50;99.90
2062;DHT22;11070;51.336;12.340;2023-04-03T05:02:15;-0.40;99.90
2062;DHT22;11070;51.336;12.340;2023-04-03T05:04:41;-0.40;99.90
2062;DHT22;11070;51.336;12.340;2023-04-03T05:07:07;-0.40;99.90
2062;DHT22;11070;51.336;12.340;2023-04-03T05:09:32;-0.40;99.90
2062;DHT22;11070;51.336;12.340;2023-04-03T05:11:58;-0.40;99.90
2062;DHT22;11070;51.336;12.340;2023-04-03T05:14:24;-0.40;99.90
2062;DHT22;11070;51.336;12.340;2023-04-03T05:16:50;-0.30;99.90
2062;DHT22;11070;51.336;12.340;2023-04-03T05:19:20;-0.30;99.90
2062;DHT22;11070;51.336;12.340;2023-04-03T05:21:46;-0.20;99.90
2062;DHT22;11070;51.336;12.340;2023-04-03T05:24:12;-0.20;99.90
2062;DHT22;11070;51.336;12.340;2023-04-03T05:26:37;-0.20;99.90
2062;DHT22;11070;51.336;12.340;2023-04-03T05:29:03;-0.20;99.90
2062;DHT22;11070;51.336;12.340;2023-04-03T05:31:29;-0.20;99.90
2062;DHT22;11070;51.336;12.340;2023-04-03T05:33:55;-0.20;99.90
2062;DHT22;11070;51.336;12.340;2023-04-03T05:36:21;-0.10;99.90
2062;DHT22;11070;51.336;12.340;2023-04-03T05:38:47;-0.10;99.90
2062;DHT22;11070;51.336;12.340;2023-04-03T05:41:15;0.00;99.90
2062;DHT22;11070;51.336;12.340;2023-04-03T05:43:41;0.00;99.90
2062;DHT22;11070;51.336;12.340;2023-04-03T05:46:15;0.10;99.90
2062;DHT22;11070;51.336;12.340;2023-04-03T05:48:41;0.20;99.90
2062;DHT22;11070;51.336;12.340;2023-04-03T05:51:18;0.20;99.90
2062;DHT22;11070;51.336;12.340;2023-04-03T05:53:44;0.30;99.90
2062;DHT22;11070;51.336;12.340;2023-04-03T05:56:11;0.30;99.90
2062;DHT22;11070;51.336;12.340;2023-04-03T05:58:37;0.40;99.90
2062;DHT22;11070;51.336;12.340;2023-04-03T06:01:02;0.50;99.90
2062;DHT22;11070;51.336;12.340;2023-04-03T06:03:28;0.50;99.90
2062;DHT22;11070;51.336;12.340;2023-04-03T06:05:54;0.70;99.90
2062;DHT22;11070;51.336;12.340;2023-04-03T06:08:19;0.80;99.90
2062;DHT22;11070;51.336;12.340;2023-04-03T06:10:45;0.80;99.90
2062;DHT22;11070;51.336;12.340;2023-04-03T06:13:11;0.90;99.90
2062;DHT22;11070;51.336;12.340;2023-04-03T06:15:38;1.10;99.90
2062;DHT22;11070;51.336;12.340;2023-04-03T06:18:05;1.30;99.90
2062;DHT22;11070;51.336;12.340;2023-04-03T06:20:30;1.70;99.90
2062;DHT22;11070;51.336;12.340;2023-04-03T06:22:56;2.40;99.90
2062;DHT22;11070;51.336;12.340;2023-04-03T06:25:22;3.10;99.90
2062;DHT22;11070;51.336;12.340;2023-04-03T06:27:48;3.50;99.90
2062;DHT22;11070;51.336;12.340;2023-04-03T06:30:14;4.00;99.90
2062;DHT22;11070;51.336;12.340;2023-04-03T06:32:40;4.40;99.90
2062;DHT22;11070;51.336;12.340;2023-04-03T06:35:06;4.30;99.90
2062;DHT22;11070;51.336;12.340;2023-04-03T06:37:32;4.00;99.90
2062;DHT22;11070;51.336;12.340;2023-04-03T06:39:58;3.70;99.90
2062;DHT22;11070;51.336;12.340;2023-04-03T06:42:25;3.60;99.90
2062;DHT22;11070;51.336;12.340;2023-04-03T06:44:51;3.50;99.90
2062;DHT22;11070;51.336;12.340;2023-04-03T06:47:17;3.30;99.90
2062;DHT22;11070;51.336;12.340;2023-04-03T06:49:43;3.10;99.90
2062;DHT22;11070;51.336;12.340;2023-04-03T06:52:10;3.00;99.90
2062;DHT22;11070;51.336;12.340;2023-04-03T06:54:37;3.00;99.90
2062;DHT22;11070;51.336;12.340;2023-04-03T06:57:03;3.20;99.90
2062;DHT22;11070;51.336;12.340;2023-04-03T06:59:29;3.10;99.90
2062;DHT22;11070;51.336;12.340;2023-04-03T07:01:55;3.10;99.90
2062;DHT22;11070;51.336;12.340;2023-04-03T07:04:21;3.40;99.90
2062;DHT22;11070;51.336;12.340;2023-04-03T07:06:47;3.60;99.90
2062;DHT22;11070;51.336;12.340;2023-04-03T07:09:14;3.70;99.90
2062;DHT22;11070;51.336;12.340;2023-04-03T07:11:40;3.80;99.90
2062;DHT22;11070;51.336;12.340;2023-04-03T07:14:06;4.10;99.90
2062;DHT22;11070;51.336;12.340;2023-04-03T07:16:34;4.20;99.90
2062;DHT22;11070;51.336;12.340;2023-04-03T07:19:00;4.40;99.90
2062;DHT22;11070;51.336;12.340;2023-04-03T07:21:27;4.80;99.90
2062;DHT22;11070;51.336;12.340;2023-04-03T07:23:53;5.00;99.90
2062;DHT22;11070;51.336;12.340;2023-04-03T07:26:19;5.20;99.90
2062;DHT22;11070;51.336;12.340;2023-04-03T07:28:46;5.50;99.90
2062;DHT22;11070;51.336;12.340;2023-04-03T07:31:14;5.70;99.90
2062;DHT22;11070;51.336;12.340;2023-04-03T07:33:41;5.80;99.90
2062;DHT22;11070;51.336;12.340;2023-04-03T07:36:08;6.10;99.90
2062;DHT22;11070;51.336;12.340;2023-04-03T07:38:37;6.40;99.90
2062;DHT22;11070;51.336;12.340;2023-04-03T07:41:03;6.60;99.90
2062;DHT22;11070;51.336;12.340;2023-04-03T07:43:29;6.80;99.90
2062;DHT22;11070;51.336;12.340;2023-04-03T07:45:55;6.90;99.90
2062;DHT22;11070;51.336;12.340;2023-04-03T07:48:23;7.40;99.90
2062;DHT22;11070;51.336;12.340;2023-04-03T07:50:49;7.90;97.40
2062;DHT22;11070;51.336;12.340;2023-04-03T07:53:15;7.60;96.20
2062;DHT22;11070;51.336;12.340;2023-04-03T07:55:41;7.80;97.70
2062;DHT22;11070;51.336;12.340;2023-04-03T07:58:15;8.40;95.90
2062;DHT22;11070;51.336;12.340;2023-04-03T08:00:41;8.90;92.20
2062;DHT22;11070;51.336;12.340;2023-04-03T08:03:08;9.00;90.50
2062;DHT22;11070;51.336;12.340;2023-04-03T08:05:42;9.40;85.30
2062;DHT22;11070;51.336;12.340;2023-04-03T08:08:10;9.50;82.30
2062;DHT22;11070;51.336;12.340;2023-04-03T08:10:36;9.40;81.40
2062;DHT22;11070;51.336;12.340;2023-04-03T08:13:02;9.20;82.10
2062;DHT22;11070;51.336;12.340;2023-04-03T08:15:30;8.60;83.50
2062;DHT22;11070;51.336;12.340;2023-04-03T08:17:56;8.00;87.20
2062;DHT22;11070;51.336;12.340;2023-04-03T08:20:21;7.80;90.00
2062;DHT22;11070;51.336;12.340;2023-04-03T08:22:47;8.20;90.10
2062;DHT22;11070;51.336;12.340;2023-04-03T08:25:13;8.50;89.20
2062;DHT22;11070;51.336;12.340;2023-04-03T08:27:39;9.70;84.20
2062;DHT22;11070;51.336;12.340;2023-04-03T08:30:05;10.00;76.10
2062;DHT22;11070;51.336;12.340;2023-04-03T08:32:33;9.90;76.20
2062;DHT22;11070;51.336;12.340;2023-04-03T08:35:00;11.80;68.20
2062;DHT22;11070;51.336;12.340;2023-04-03T08:37:25;12.90;63.70
2062;DHT22;11070;51.336;12.340;2023-04-03T08:39:51;12.90;63.70
2062;DHT22;11070;51.336;12.340;2023-04-03T08:45:18;12.80;61.00
2062;DHT22;11070;51.336;12.340;2023-04-03T08:47:59;12.70;60.00
2062;DHT22;11070;51.336;12.340;2023-04-03T08:50:38;11.80;59.90
2062;DHT22;11070;51.336;12.340;2023-04-03T08:53:06;10.10;61.80
2062;DHT22;11070;51.336;12.340;2023-04-03T08:55:55;9.70;64.30
2062;DHT22;11070;51.336;12.340;2023-04-03T08:58:28;8.80;68.60
2062;DHT22;11070;51.336;12.340;2023-04-03T09:01:03;8.00;71.90
2062;DHT22;11070;51.336;12.340;2023-04-03T09:03:32;7.50;77.30
2062;DHT22;11070;51.336;12.340;2023-04-03T09:06:13;7.50;76.30
2062;DHT22;11070;51.336;12.340;2023-04-03T09:08:44;7.20;77.40
2062;DHT22;11070;51.336;12.340;2023-04-03T09:19:02;11.10;61.50
2062;DHT22;11070;51.336;12.340;2023-04-03T09:21:36;11.50;58.40
2062;DHT22;11070;51.336;12.340;2023-04-03T09:24:05;13.30;53.90
2062;DHT22;11070;51.336;12.340;2023-04-03T09:29:06;14.40;50.10
2062;DHT22;11070;51.336;12.340;2023-04-03T09:31:39;14.80;50.20
2062;DHT22;11070;51.336;12.340;2023-04-03T09:34:49;14.90;50.10
2062;DHT22;11070;51.336;12.340;2023-04-03T09:37:00;15.40;49.80
2062;DHT22;11070;51.336;12.340;2023-04-03T09:39:33;14.70;48.30
2062;DHT22;11070;51.336;12.340;2023-04-03T09:42:22;14.30;48.50
2062;DHT22;11070;51.336;12.340;2023-04-03T09:45:02;14.40;48.90
2062;DHT22;11070;51.336;12.340;2023-04-03T09:47:31;14.00;47.60
2062;DHT22;11070;51.336;12.340;2023-04-03T09:52:44;12.40;48.20
2062;DHT22;11070;51.336;12.340;2023-04-03T09:55:18;12.70;49.90
2062;DHT22;11070;51.336;12.340;2023-04-03T09:57:47;13.70;48.80
2062;DHT22;11070;51.336;12.340;2023-04-03T10:02:54;15.50;46.70
2062;DHT22;11070;51.336;12.340;2023-04-03T10:05:42;15.50;46.90
2062;DHT22;11070;51.336;12.340;2023-04-03T10:10:44;16.10;45.10
2062;DHT22;11070;51.336;12.340;2023-04-03T10:13:13;17.00;44.00
2062;DHT22;11070;51.336;12.340;2023-04-03T10:15:46;17.10;42.70
2062;DHT22;11070;51.336;12.340;2023-04-03T10:20:48;17.80;42.10
2062;DHT22;11070;51.336;12.340;2023-04-03T10:26:53;17.60;40.60
2062;DHT22;11070;51.336;12.340;2023-04-03T10:29:55;18.20;40.10
2062;DHT22;11070;51.336;12.340;2023-04-03T10:35:42;18.50;38.90
2062;DHT22;11070;51.336;12.340;2023-04-03T10:44:16;16.50;38.10
2062;DHT22;11070;51.336;12.340;2023-04-03T10:46:55;15.90;39.00
2062;DHT22;11070;51.336;12.340;2023-04-03T10:52:11;16.10;40.40
2062;DHT22;11070;51.336;12.340;2023-04-03T10:54:43;17.20;40.70
2062;DHT22;11070;51.336;12.340;2023-04-03T10:57:11;17.90;40.30
2062;DHT22;11070;51.336;12.340;2023-04-03T10:59:43;17.70;40.10
2062;DHT22;11070;51.336;12.340;2023-04-03T11:05:23;18.30;39.30
2062;DHT22;11070;51.336;12.340;2023-04-03T11:07:53;18.70;38.70
2062;DHT22;11070;51.336;12.340;2023-04-03T11:10:25;20.00;37.60
2062;DHT22;11070;51.336;12.340;2023-04-03T11:13:01;20.60;36.80
2062;DHT22;11070;51.336;12.340;2023-04-03T11:15:30;18.10;36.80
2062;DHT22;11070;51.336;12.340;2023-04-03T11:18:02;15.10;39.30
2062;DHT22;11070;51.336;12.340;2023-04-03T11:20:30;13.50;40.60
2062;DHT22;11070;51.336;12.340;2023-04-03T11:23:19;12.20;41.90
2062;DHT22;11070;51.336;12.340;2023-04-03T11:25:51;11.80;43.40
2062;DHT22;11070;51.336;12.340;2023-04-03T11:28:19;12.80;47.30
2062;DHT22;11070;51.336;12.340;2023-04-03T11:31:01;14.30;45.70
2062;DHT22;11070;51.336;12.340;2023-04-03T11:36:19;16.60;41.10
2062;DHT22;11070;51.336;12.340;2023-04-03T11:38:49;15.90;39.00
2062;DHT22;11070;51.336;12.340;2023-04-03T11:41:17;16.30;39.50
2062;DHT22;11070;51.336;12.340;2023-04-03T11:44:02;15.80;40.50
2062;DHT22;11070;51.336;12.340;2023-04-03T11:46:54;16.10;39.10
2062;DHT22;11070;51.336;12.340;2023-04-03T12:00:57;11.40;45.10
2062;DHT22;11070;51.336;12.340;2023-04-03T12:08:46;14.00;41.70
2062;DHT22;11070;51.336;12.340;2023-04-03T12:11:13;11.60;43.80
2062;DHT22;11070;51.336;12.340;2023-04-03T12:24:33;11.00;46.90
2062;DHT22;11070;51.336;12.340;2023-04-03T12:29:36;13.60;43.10
2062;DHT22;11070;51.336;12.340;2023-04-03T12:35:30;11.10;46.20
2062;DHT22;11070;51.336;12.340;2023-04-03T12:46:44;9.40;49.70
2062;DHT22;11070;51.336;12.340;2023-04-03T12:51:52;10.70;48.20
2062;DHT22;11070;51.336;12.340;2023-04-03T12:54:29;10.50;48.30
2062;DHT22;11070;51.336;12.340;2023-04-03T12:57:21;10.20;49.00
2062;DHT22;11070;51.336;12.340;2023-04-03T12:59:49;9.70;50.30
2062;DHT22;11070;51.336;12.340;2023-04-03T13:02:28;9.30;50.30
2062;DHT22;11070;51.336;12.340;2023-04-03T13:05:07;9.00;51.00
2062;DHT22;11070;51.336;12.340;2023-04-03T13:07:36;8.80;52.20
2062;DHT22;11070;51.336;12.340;2023-04-03T13:12:34;9.10;52.00
2062;DHT22;11070;51.336;12.340;2023-04-03T13:15:14;9.30;50.90
2062;DHT22;11070;51.336;12.340;2023-04-03T13:17:41;10.00;49.20
2062;DHT22;11070;51.336;12.340;2023-04-03T13:23:00;9.30;50.40
2062;DHT22;11070;51.336;12.340;2023-04-03T13:25:29;8.60;51.40
2062;DHT22;11070;51.336;12.340;2023-04-03T13:27:58;8.50;52.10
2062;DHT22;11070;51.336;12.340;2023-04-03T13:30:28;8.40;51.50
2062;DHT22;11070;51.336;12.340;2023-04-03T13:32:57;8.20;52.40
2062;DHT22;11070;51.336;12.340;2023-04-03T13:35:31;8.30;52.90
2062;DHT22;11070;51.336;12.340;2023-04-03T13:38:00;8.50;52.80
2062;DHT22;11070;51.336;12.340;2023-04-03T13:40:26;9.40;52.10
2062;DHT22;11070;51.336;12.340;2023-04-03T13:43:14;9.60;50.80
2062;DHT22;11070;51.336;12.340;2023-04-03T13:45:57;9.50;50.40
2062;DHT22;11070;51.336;12.340;2023-04-03T13:48:24;9.30;50.40
2062;DHT22;11070;51.336;12.340;2023-04-03T13:50:59;9.10;50.20
2062;DHT22;11070;51.336;12.340;2023-04-03T13:53:26;8.70;48.90
2062;DHT22;11070;51.336;12.340;2023-04-03T13:58:22;8.20;50.50
2062;DHT22;11070;51.336;12.340;2023-04-03T14:00:53;9.10;51.30
2062;DHT22;11070;51.336;12.340;2023-04-03T14:03:37;10.50;49.00
2062;DHT22;11070;51.336;12.340;2023-04-03T14:06:14;11.00;47.30
2062;DHT22;11070;51.336;12.340;2023-04-03T14:08:41;10.40;47.30
2062;DHT22;11070;51.336;12.340;2023-04-03T14:11:15;9.40;49.90
2062;DHT22;11070;51.336;12.340;2023-04-03T14:13:42;8.60;51.80
2062;DHT22;11070;51.336;12.340;2023-04-03T14:16:15;7.90;53.10
2062;DHT22;11070;51.336;12.340;2023-04-03T14:18:43;7.60;54.80
2062;DHT22;11070;51.336;12.340;2023-04-03T14:21:12;7.40;55.20
2062;DHT22;11070;51.336;12.340;2023-04-03T14:23:37;7.30;56.30
2062;DHT22;11070;51.336;12.340;2023-04-03T14:26:08;7.30;56.10
2062;DHT22;11070;51.336;12.340;2023-04-03T14:28:35;7.10;55.60
2062;DHT22;11070;51.336;12.340;2023-04-03T14:31:00;6.90;55.30
2062;DHT22;11070;51.336;12.340;2023-04-03T14:35:54;6.70;55.60
2062;DHT22;11070;51.336;12.340;2023-04-03T14:38:30;6.70;56.30
2062;DHT22;11070;51.336;12.340;2023-04-03T14:40:56;6.60;56.40
2062;DHT22;11070;51.336;12.340;2023-04-03T14:43:22;6.50;56.60
2062;DHT22;11070;51.336;12.340;2023-04-03T14:45:49;6.70;56.40
2062;DHT22;11070;51.336;12.340;2023-04-03T14:48:22;6.70;32.40
2062;DHT22;11070;51.336;12.340;2023-04-03T14:50:49;6.50;99.90
2062;DHT22;11070;51.336;12.340;2023-04-03T14:53:16;6.50;99.90
2062;DHT22;11070;51.336;12.340;2023-04-03T14:55:46;6.40;99.90
2062;DHT22;11070;51.336;12.340;2023-04-03T14:58:13;6.40;99.90
2062;DHT22;11070;51.336;12.340;2023-04-03T15:00:40;6.20;99.90
2062;DHT22;11070;51.336;12.340;2023-04-03T15:03:08;6.10;99.90
2062;DHT22;11070;51.336;12.340;2023-04-03T15:05:35;6.10;99.90
2062;DHT22;11070;51.336;12.340;2023-04-03T15:08:02;6.20;99.90
2062;DHT22;11070;51.336;12.340;2023-04-03T15:10:30;6.30;99.90
2062;DHT22;11070;51.336;12.340;2023-04-03T15:12:56;6.30;99.90
2062;DHT22;11070;51.336;12.340;2023-04-03T15:15:23;6.30;99.90
2062;DHT22;11070;51.336;12.340;2023-04-03T15:17:54;6.20;99.90
2062;DHT22;11070;51.336;12.340;2023-04-03T15:20:24;6.10;99.90
2062;DHT22;11070;51.336;12.340;2023-04-03T15:22:50;6.00;99.90
2062;DHT22;11070;51.336;12.340;2023-04-03T15:25:16;5.90;99.90
2062;DHT22;11070;51.336;12.340;2023-04-03T15:27:42;5.80;99.90
2062;DHT22;11070;51.336;12.340;2023-04-03T15:30:13;5.80;99.90
2062;DHT22;11070;51.336;12.340;2023-04-03T15:32:40;5.90;99.90
2062;DHT22;11070;51.336;12.340;2023-04-03T15:35:06;5.80;99.90
2062;DHT22;11070;51.336;12.340;2023-04-03T15:39:58;5.60;99.90
2062;DHT22;11070;51.336;12.340;2023-04-03T15:42:24;5.50;99.90
2062;DHT22;11070;51.336;12.340;2023-04-03T15:44:49;5.50;99.90
2062;DHT22;11070;51.336;12.340;2023-04-03T15:47:15;5.50;99.90
2062;DHT22;11070;51.336;12.340;2023-04-03T15:49:41;5.50;99.90
2062;DHT22;11070;51.336;12.340;2023-04-03T15:52:07;5.50;99.90
2062;DHT22;11070;51.336;12.340;2023-04-03T15:54:33;5.40;99.90
2062;DHT22;11070;51.336;12.340;2023-04-03T15:56:59;5.40;99.90
2062;DHT22;11070;51.336;12.340;2023-04-03T15:59:25;5.40;99.90
2062;DHT22;11070;51.336;12.340;2023-04-03T16:01:51;5.50;99.90
2062;DHT22;11070;51.336;12.340;2023-04-03T16:04:18;5.50;99.90
2062;DHT22;11070;51.336;12.340;2023-04-03T16:06:44;5.40;99.90
2062;DHT22;11070;51.336;12.340;2023-04-03T16:09:10;5.30;99.90
2062;DHT22;11070;51.336;12.340;2023-04-03T16:11:36;5.20;99.90
2062;DHT22;11070;51.336;12.340;2023-04-03T16:14:05;5.20;99.90
2062;DHT22;11070;51.336;12.340;2023-04-03T16:16:30;5.30;99.90
2062;DHT22;11070;51.336;12.340;2023-04-03T16:18:56;5.20;99.90
2062;DHT22;11070;51.336;12.340;2023-04-03T16:21:23;5.20;99.90
2062;DHT22;11070;51.336;12.340;2023-04-03T16:23:49;5.20;99.90
2062;DHT22;11070;51.336;12.340;2023-04-03T16:26:15;5.20;99.90
2062;DHT22;11070;51.336;12.340;2023-04-03T16:28:43;5.30;99.90
2062;DHT22;11070;51.336;12.340;2023-04-03T16:31:08;5.20;99.90
2062;DHT22;11070;51.336;12.340;2023-04-03T16:33:34;5.10;99.90
2062;DHT22;11070;51.336;12.340;2023-04-03T16:36:03;5.10;99.90
2062;DHT22;11070;51.336;12.340;2023-04-03T16:38:30;5.20;99.90
2062;DHT22;11070;51.336;12.340;2023-04-03T16:40:56;5.10;99.90
2062;DHT22;11070;51.336;12.340;2023-04-03T16:43:30;5.10;99.90
2062;DHT22;11070;51.336;12.340;2023-04-03T16:45:57;5.10;99.90
2062;DHT22;11070;51.336;12.340;2023-04-03T16:48:23;5.00;99.90
2062;DHT22;11070;51.336;12.340;2023-04-03T16:50:49;5.00;99.90
2062;DHT22;11070;51.336;12.340;2023-04-03T16:53:19;4.90;99.90
2062;DHT22;11070;51.336;12.340;2023-04-03T16:55:44;4.90;99.90
2062;DHT22;11070;51.336;12.340;2023-04-03T16:58:10;4.90;99.90
2062;DHT22;11070;51.336;12.340;2023-04-03T17:00:36;4.80;99.90
2062;DHT22;11070;51.336;12.340;2023-04-03T17:03:02;4.80;99.90
2062;DHT22;11070;51.336;12.340;2023-04-03T17:05:28;4.80;99.90
2062;DHT22;11070;51.336;12.340;2023-04-03T17:07:53;4.70;99.90
2062;DHT22;11070;51.336;12.340;2023-04-03T17:10:19;4.70;99.90
2062;DHT22;11070;51.336;12.340;2023-04-03T17:12:45;4.80;99.90
2062;DHT22;11070;51.336;12.340;2023-04-03T17:15:11;4.70;99.90
2062;DHT22;11070;51.336;12.340;2023-04-03T17:17:36;4.60;99.90
2062;DHT22;11070;51.336;12.340;2023-04-03T17:20:03;4.60;99.90
2062;DHT22;11070;51.336;12.340;2023-04-03T17:22:28;4.60;99.90
2062;DHT22;11070;51.336;12.340;2023-04-03T17:24:55;4.60;99.90
2062;DHT22;11070;51.336;12.340;2023-04-03T17:27:20;4.60;99.90
2062;DHT22;11070;51.336;12.340;2023-04-03T17:29:46;4.60;99.90
2062;DHT22;11070;51.336;12.340;2023-04-03T17:32:12;4.60;99.90
2062;DHT22;11070;51.336;12.340;2023-04-03T17:34:37;4.60;99.90
2062;DHT22;11070;51.336;12.340;2023-04-03T17:37:04;4.60;99.90
2062;DHT22;11070;51.336;12.340;2023-04-03T17:39:30;4.50;99.90
2062;DHT22;11070;51.336;12.340;2023-04-03T17:41:56;4.50;99.90
2062;DHT22;11070;51.336;12.340;2023-04-03T17:44:21;4.60;99.90